Time;durP1;ratioP1;P1;durP2;ratioP2;P2;SDS_P1;SDS_P2;PMS_P1;PMS_P2;Temp;Humidity;BMP_temperature;BMP_pressure;BME280_temperature;BME280_humidity;BME280_pressure;Samples;Min_cycle;Max_cycle;Signal;HPM_P1;HPM_P2
2022/08/12 00:42:52;;;;;;;6.50;2.50;;;;;;;19.08;49.32;100325.88;5039193;28;20041;-69
2022/08/12 00:45:19;;;;;;;5.10;2.33;;;;;;;19.07;49.37;100324.28;5056076;28;20758;-68
2022/08/12 00:47:49;;;;;;;5.18;3.15;;;;;;;19.07;49.40;100327.88;5055618;28;20052;-68
2022/08/12 00:50:18;;;;;;;5.32;2.97;;;;;;;19.06;49.65;100316.97;5056392;28;20056;-67
2022/08/12 00:52:51;;;;;;;4.95;2.70;;;;;;;19.04;49.52;100325.81;5054742;28;20045;-69
2022/08/12 00:55:19;;;;;;;16.52;5.55;;;;;;;19.04;49.70;100327.81;5036955;28;20045;-69
2022/08/12 00:57:49;;;;;;;12.00;3.75;;;;;;;19.00;49.77;100327.75;5034352;28;20068;-67
2022/08/12 01:00:23;;;;;;;11.15;3.03;;;;;;;18.99;49.71;100316.84;5035926;28;20053;-68
2022/08/12 01:02:57;;;;;;;12.98;3.08;;;;;;;18.97;49.81;100317.19;5035629;28;20081;-67
2022/08/12 01:11:31;;;;;;;6.78;3.40;;;;;;;18.89;49.91;100323.06;4974509;28;20065;-67
2022/08/12 01:14:00;;;;;;;7.25;3.50;;;;;;;18.87;50.02;100319.78;4974543;28;20066;-69
2022/08/12 01:16:28;;;;;;;10.47;3.73;;;;;;;18.83;50.10;100325.34;5010883;28;20057;-69
2022/08/12 01:18:57;;;;;;;14.45;3.00;;;;;;;18.84;50.14;100321.34;5017417;28;20296;-69
2022/08/12 01:21:27;;;;;;;16.40;3.30;;;;;;;18.82;50.19;100323.72;5035841;28;20140;-69
2022/08/12 01:24:27;;;;;;;7.22;3.10;;;;;;;18.81;50.19;100330.56;5035416;28;20046;-68
2022/08/12 01:26:59;;;;;;;7.20;3.20;;;;;;;18.81;50.30;100330.56;5035077;28;20042;-68
2022/08/12 01:29:28;;;;;;;7.03;3.17;;;;;;;18.81;50.30;100330.56;5035196;28;20059;-70
2022/08/12 01:32:04;;;;;;;7.28;3.13;;;;;;;18.81;50.32;100335.34;5035281;28;20060;-70
2022/08/12 01:34:38;;;;;;;10.27;3.13;;;;;;;18.79;50.46;100338.53;5053319;28;20093;-71
2022/08/12 01:37:07;;;;;;;11.70;3.30;;;;;;;18.78;50.67;100336.09;5055423;28;20179;-70
2022/08/12 01:39:34;;;;;;;7.88;3.40;;;;;;;18.75;50.53;100323.56;5054761;28;20051;-70
2022/08/12 01:42:06;;;;;;;9.23;3.17;;;;;;;18.77;50.72;100337.28;5047070;28;20127;-70
2022/08/12 01:44:33;;;;;;;8.35;3.50;;;;;;;18.73;50.52;100325.09;5035012;28;20057;-70
2022/08/12 01:47:29;;;;;;;7.47;3.30;;;;;;;18.74;50.63;100327.53;5035852;28;20046;-70
2022/08/12 01:50:12;;;;;;;11.30;3.35;;;;;;;18.69;50.68;100335.47;5011866;28;20064;-70
2022/08/12 01:52:54;;;;;;;6.15;3.25;;;;;;;18.65;50.79;100338.22;5034907;28;20057;-70
2022/08/12 01:55:31;;;;;;;11.23;3.22;;;;;;;18.62;50.77;100340.97;5034941;28;20049;-70
2022/08/12 01:59:45;;;;;;;7.70;2.85;;;;;;;18.61;50.76;100330.84;5034513;28;20053;-70
2022/08/12 02:01:33;;;;;;;8.55;3.47;;;;;;;18.60;50.89;100327.25;5034718;28;20382;-70
2022/08/12 02:13:29;;;;;;;10.40;3.20;;;;;;;18.46;51.39;100335.34;5034664;28;20045;-70
2022/08/12 02:16:26;;;;;;;5.10;3.15;;;;;;;18.50;51.27;100335.44;5034782;28;20084;-69
2022/08/12 02:19:26;;;;;;;8.23;3.53;;;;;;;18.50;51.40;100332.63;5034175;28;20060;-70
2022/08/12 02:22:35;;;;;;;8.77;3.47;;;;;;;18.52;51.43;100339.53;5034431;28;20041;-69
2022/08/12 02:25:07;;;;;;;7.97;3.95;;;;;;;18.56;51.50;100339.63;5034346;28;20045;-69
2022/08/12 02:27:41;;;;;;;12.65;4.05;;;;;;;18.56;51.45;100334.78;5034136;28;20087;-69
2022/08/12 02:30:13;;;;;;;7.32;3.53;;;;;;;18.56;51.51;100342.44;5034376;28;20053;-69
2022/08/12 02:32:42;;;;;;;15.60;4.03;;;;;;;18.55;51.56;100347.25;5033561;28;20128;-69
2022/08/12 02:35:13;;;;;;;9.98;4.47;;;;;;;18.54;51.73;100348.44;5034302;28;20049;-69
2022/08/12 02:37:42;;;;;;;7.30;4.05;;;;;;;18.56;51.80;100343.22;5034054;28;20046;-70
2022/08/12 02:40:11;;;;;;;9.43;4.18;;;;;;;18.58;51.76;100349.31;5033841;28;20045;-70
2022/08/12 02:42:52;;;;;;;12.57;3.87;;;;;;;18.58;51.91;100352.16;5033381;28;20037;-70
2022/08/12 02:45:37;;;;;;;21.80;6.55;;;;;;;18.59;51.87;100348.13;5033914;28;20781;-70
2022/08/12 02:48:09;;;;;;;11.93;3.80;;;;;;;18.59;52.00;100348.13;5033512;28;20045;-70
2022/08/12 02:50:44;;;;;;;9.90;4.47;;;;;;;18.60;52.28;100343.31;5033949;28;20424;-70
2022/08/12 02:53:12;;;;;;;8.27;3.88;;;;;;;18.58;52.14;100346.50;5033411;28;20624;-70
2022/08/12 02:55:39;;;;;;;8.75;3.78;;;;;;;18.60;52.31;100348.97;5015791;28;20054;-69
2022/08/12 02:58:08;;;;;;;8.00;3.65;;;;;;;18.66;52.31;100348.31;5033855;28;20060;-70
2022/08/12 03:00:41;;;;;;;19.40;3.78;;;;;;;18.70;52.31;100349.22;5033617;28;20057;-70
2022/08/12 03:03:11;;;;;;;5.93;3.45;;;;;;;18.73;52.49;100353.28;5033248;28;20512;-70
2022/08/12 03:05:56;;;;;;;;;;;;;;;18.65;52.44;100343.84;5033514;28;20045;-70
2022/08/12 03:08:29;;;;;;;13.50;3.95;;;;;;;18.67;52.49;100349.94;5033097;28;19947;-70
2022/08/12 03:11:08;;;;;;;9.43;4.35;;;;;;;18.77;52.54;100357.03;5033364;28;20408;-69
2022/08/12 03:13:44;;;;;;;8.15;3.80;;;;;;;18.79;52.54;100358.28;5033615;28;20049;-69
2022/08/12 03:16:12;;;;;;;11.82;4.60;;;;;;;18.84;52.66;100354.34;5033368;28;20056;-70
2022/08/12 03:18:44;;;;;;;7.13;3.67;;;;;;;18.91;52.71;100358.16;5033059;28;20045;-69
2022/08/12 03:21:15;;;;;;;11.32;4.10;;;;;;;19.00;52.58;100346.66;5033168;28;20459;-69
2022/08/12 03:23:44;;;;;;;11.60;4.32;;;;;;;19.10;52.43;100346.88;5032936;28;20076;-70
2022/08/12 03:26:13;;;;;;;13.75;4.38;;;;;;;19.22;52.11;100348.78;5033257;28;20053;-70
2022/08/12 03:28:49;;;;;;;6.37;3.43;;;;;;;19.34;52.05;100346.66;5033032;28;20136;-70
2022/08/12 03:31:21;;;;;;;10.45;4.25;;;;;;;19.48;52.06;100340.47;5033101;28;20509;-70
2022/08/12 03:33:49;;;;;;;12.07;4.00;;;;;;;19.54;52.06;100339.00;5032540;28;20513;-69
2022/08/12 03:36:28;;;;;;;;;;;;;;;19.45;52.25;100335.59;5033301;28;20095;-70
2022/08/12 03:41:58;;;;;;;16.88;4.25;;;;;;;19.66;52.21;100347.28;5032798;28;20064;-70
2022/08/12 04:01:26;;;;;;;13.52;4.60;;;;;;;19.87;51.79;100351.31;5032525;28;20148;-70
2022/08/12 04:03:53;;;;;;;17.55;5.03;;;;;;;19.92;51.86;100350.19;5032248;28;20393;-70
2022/08/12 04:06:28;;;;;;;14.40;4.90;;;;;;;19.98;51.87;100347.91;5032474;28;20540;-70
2022/08/12 04:09:04;;;;;;;12.82;5.30;;;;;;;20.04;51.85;100346.38;5032282;28;20191;-71
2022/08/12 04:14:30;;;;;;;22.00;5.75;;;;;;;20.23;50.37;100350.00;5032040;28;20141;-70
2022/08/12 04:16:58;;;;;;;15.27;5.60;;;;;;;20.33;49.90;100349.34;5032016;28;20420;-70
2022/08/12 04:19:25;;;;;;;16.40;6.85;;;;;;;20.42;49.73;100349.06;5032248;28;20136;-70
2022/08/12 04:21:54;;;;;;;14.02;5.18;;;;;;;20.48;49.49;100345.56;5031405;28;20599;-70
2022/08/12 04:24:33;;;;;;;10.40;5.18;;;;;;;20.54;49.54;100348.91;5032296;28;20471;-70
2022/08/12 04:27:04;;;;;;;18.77;6.55;;;;;;;20.54;49.49;100344.03;5032096;28;20060;-71
2022/08/12 04:29:33;;;;;;;16.88;5.47;;;;;;;20.60;49.34;100344.56;5032005;28;20045;-71
2022/08/12 04:32:22;;;;;;;12.60;5.47;;;;;;;20.69;48.97;100345.88;5031963;28;20072;-70
2022/08/12 04:34:50;;;;;;;18.33;6.25;;;;;;;20.78;48.91;100342.81;5050191;28;20053;-70
2022/08/12 04:37:17;;;;;;;14.15;5.63;;;;;;;20.86;48.37;100347.34;5051600;28;20060;-71
2022/08/12 04:39:44;;;;;;;19.58;6.38;;;;;;;20.93;48.32;100344.66;5051703;28;20126;-70
2022/08/12 04:42:12;;;;;;;23.17;6.53;;;;;;;21.02;48.02;100353.69;5051697;28;20049;-70
2022/08/12 04:44:39;;;;;;;17.38;6.43;;;;;;;21.10;47.60;100355.41;5031959;28;20060;-70
2022/08/12 04:47:10;;;;;;;11.93;5.38;;;;;;;21.20;46.92;100349.09;5031950;28;20052;-70
2022/08/12 04:49:38;;;;;;;11.27;5.72;;;;;;;21.24;47.14;100345.09;5032142;28;20058;-70
2022/08/12 04:52:05;;;;;;;17.05;7.50;;;;;;;21.29;46.97;100343.94;5031911;28;20049;-71
2022/08/12 04:54:33;;;;;;;21.30;5.05;;;;;;;21.39;46.87;100349.75;5031860;28;20137;-71
2022/08/12 04:57:00;;;;;;;10.40;4.80;;;;;;;21.47;46.59;100347.81;5031928;28;20085;-69
2022/08/12 04:59:34;;;;;;;12.00;5.10;;;;;;;21.57;46.41;100347.13;5031478;28;20045;-71
2022/08/12 05:02:18;;;;;;;13.55;4.80;;;;;;;21.62;46.15;100344.75;5031735;28;20049;-70
2022/08/12 05:04:55;;;;;;;12.60;5.10;;;;;;;21.73;45.70;100344.88;5031816;28;20049;-72
2022/08/12 05:07:28;;;;;;;10.55;4.22;;;;;;;21.82;45.26;100348.25;5035503;28;20054;-71
2022/08/12 05:09:55;;;;;;;11.55;4.50;;;;;;;21.89;45.08;100348.31;5035488;28;20056;-70
2022/08/12 05:12:41;;;;;;;9.65;4.55;;;;;;;22.00;44.67;100343.59;5035527;28;20049;-71
2022/08/12 05:15:09;;;;;;;9.97;4.23;;;;;;;22.11;44.39;100338.81;5035597;28;20420;-72
2022/08/12 05:17:54;;;;;;;7.78;3.80;;;;;;;22.20;43.86;100336.47;5035522;28;20064;-72
2022/08/12 05:20:22;;;;;;;8.30;3.75;;;;;;;22.32;43.76;100341.84;5035370;28;20076;-72
2022/08/12 05:22:49;;;;;;;15.35;4.10;;;;;;;22.43;43.55;100341.94;5035225;28;20056;-71
2022/08/12 05:25:23;;;;;;;8.93;3.28;;;;;;;22.51;42.92;100341.66;5035820;28;20068;-71
2022/08/12 05:27:50;;;;;;;8.10;3.28;;;;;;;22.63;42.35;100349.03;5035337;28;20089;-69
2022/08/12 05:30:29;;;;;;;6.00;3.47;;;;;;;22.70;42.07;100344.22;5035241;28;20100;-71
2022/08/12 05:32:57;;;;;;;8.05;3.50;;;;;;;22.76;41.61;100336.13;5034659;28;20045;-70
2022/08/12 05:35:26;;;;;;;5.93;2.72;;;;;;;22.84;41.78;100344.31;5035255;28;20049;-71
2022/08/12 05:38:55;;;;;;;8.13;3.58;;;;;;;22.99;41.38;100346.03;5034887;28;20041;-70
2022/08/12 05:40:40;;;;;;;7.47;3.25;;;;;;;23.24;40.84;100335.63;5033533;28;20049;-69
2022/08/12 05:43:08;;;;;;;10.32;3.17;;;;;;;23.51;40.41;100341.03;5034807;28;20055;-72
2022/08/12 05:45:36;;;;;;;6.32;3.00;;;;;;;23.84;39.98;100335.03;5034903;28;20085;-71
2022/08/12 05:48:09;;;;;;;5.53;2.72;;;;;;;24.33;39.20;100335.13;5034723;28;20060;-71
2022/08/12 05:50:37;;;;;;;7.72;2.90;;;;;;;25.12;37.67;100338.31;5034594;28;20049;-71
2022/08/12 05:53:05;;;;;;;5.78;2.80;;;;;;;25.87;36.81;100334.75;5034641;28;20049;-70
2022/08/12 05:55:34;;;;;;;5.03;2.60;;;;;;;26.53;34.40;100339.16;5034830;28;20099;-71
2022/08/12 05:58:01;;;;;;;5.28;2.75;;;;;;;27.27;33.04;100338.50;5017266;28;20156;-70
2022/08/12 06:00:30;;;;;;;6.90;2.35;;;;;;;29.84;28.77;100340.75;5034835;28;20046;-70
2022/08/12 06:03:00;;;;;;;5.70;2.55;;;;;;;29.93;28.09;100338.06;5034723;28;20053;-70
2022/08/12 06:05:35;;;;;;;3.38;2.17;;;;;;;28.76;29.96;100337.94;5034977;28;20088;-71
2022/08/12 06:08:22;;;;;;;8.65;2.42;;;;;;;27.61;31.65;100329.88;5034952;28;20424;-70
2022/08/12 06:10:49;;;;;;;7.28;2.80;;;;;;;27.02;31.71;100337.91;5034877;28;20050;-70
2022/08/12 06:13:17;;;;;;;10.07;3.08;;;;;;;26.86;31.75;100337.69;5034260;28;20416;-71
2022/08/12 06:16:06;;;;;;;5.32;2.58;;;;;;;27.07;31.35;100334.59;5034773;28;20103;-70
2022/08/12 06:18:33;;;;;;;9.80;2.80;;;;;;;27.52;30.96;100333.28;5033738;28;20042;-70
2022/08/12 06:21:00;;;;;;;8.13;2.65;;;;;;;27.28;30.89;100331.53;5033897;28;20128;-70
2022/08/12 06:23:28;;;;;;;7.45;2.50;;;;;;;27.66;30.25;100338.81;5033883;28;20057;-70
2022/08/12 06:25:56;;;;;;;11.43;2.92;;;;;;;28.15;29.47;100343.84;5034153;28;20133;-69
2022/08/12 06:28:24;;;;;;;8.02;2.92;;;;;;;28.78;28.78;100336.28;5033840;28;20053;-69
2022/08/12 06:30:52;;;;;;;8.60;2.85;;;;;;;29.04;28.62;100325.97;5033688;28;20421;-70
2022/08/12 06:33:43;;;;;;;4.43;2.67;;;;;;;28.01;29.93;100331.81;5033561;28;20053;-70
2022/08/12 06:36:23;;;;;;;18.52;3.03;;;;;;;27.37;31.00;100337.56;5033945;28;20068;-70
2022/08/12 06:38:58;;;;;;;12.63;3.00;;;;;;;27.76;30.35;100328.44;5032300;28;20137;-69
2022/08/12 06:44:31;;;;;;;9.13;2.75;;;;;;;31.99;24.58;100330.91;5034244;28;20053;-70
2022/08/12 06:46:58;;;;;;;9.52;2.67;;;;;;;32.10;24.63;100331.38;5033695;28;20056;-69
2022/08/12 06:49:35;;;;;;;5.45;2.60;;;;;;;31.65;25.09;100339.34;5033170;28;20386;-70
2022/08/12 06:52:03;;;;;;;12.45;2.65;;;;;;;31.14;25.07;100338.28;5033993;28;20050;-69
2022/08/12 06:54:32;;;;;;;12.45;2.75;;;;;;;30.45;25.87;100341.75;5032587;28;20057;-70
2022/08/12 06:57:02;;;;;;;6.70;2.20;;;;;;;29.33;27.45;100339.31;5033733;28;20049;-70
2022/08/12 06:59:51;;;;;;;9.45;2.17;;;;;;;28.67;27.96;100332.78;5033095;28;20049;-70
2022/08/12 07:02:19;;;;;;;6.30;1.92;;;;;;;28.21;28.69;100335.56;5033509;28;20050;-70
2022/08/12 07:04:46;;;;;;;5.60;1.83;;;;;;;28.01;29.02;100338.31;5033218;28;20057;-70
2022/08/12 07:07:14;;;;;;;5.20;1.80;;;;;;;28.22;27.70;100320.03;5032458;28;20099;-71
2022/08/12 07:09:41;;;;;;;10.20;2.13;;;;;;;28.69;27.10;100326.63;5033294;28;20541;-70
2022/08/12 07:12:28;;;;;;;7.90;2.42;;;;;;;29.00;27.03;100320.31;5023000;28;20135;-70
2022/08/12 07:14:56;;;;;;;6.22;2.22;;;;;;;28.65;27.63;100320.16;5032044;28;20041;-69
2022/08/12 07:17:24;;;;;;;8.63;2.47;;;;;;;28.96;27.62;100319.56;5032669;28;20092;-69
2022/08/12 07:19:52;;;;;;;8.15;2.50;;;;;;;31.13;24.50;100327.25;5016999;28;20049;-69
2022/08/12 07:22:21;;;;;;;4.57;2.03;;;;;;;32.69;22.81;100319.94;5033011;28;20096;-70
2022/08/12 07:25:29;;;;;;;5.43;2.17;;;;;;;33.64;21.66;100324.34;5021533;28;20042;-70
2022/08/12 07:27:41;;;;;;;8.18;2.00;;;;;;;37.90;17.25;100330.66;5019255;28;20045;-69
2022/08/12 07:30:09;;;;;;;8.35;2.10;;;;;;;41.86;13.92;100329.50;5031374;28;20060;-70
2022/08/12 07:32:36;;;;;;;10.40;1.92;;;;;;;44.93;11.65;100333.78;5033653;28;20041;-70
2022/08/12 07:35:03;;;;;;;6.13;2.08;;;;;;;47.10;10.20;100336.59;5032359;28;20060;-70
2022/08/12 07:37:30;;;;;;;4.00;1.85;;;;;;;48.93;8.74;100341.88;5030253;28;20515;-70
2022/08/12 07:39:57;;;;;;;9.63;2.22;;;;;;;49.31;8.17;100337.06;5032458;28;20064;-70
2022/08/12 07:42:28;;;;;;;8.70;2.30;;;;;;;50.07;7.89;100341.16;5015803;28;20455;-71
2022/08/12 07:44:55;;;;;;;3.60;2.00;;;;;;;50.39;7.56;100338.44;5031452;28;20069;-69
2022/08/12 07:47:23;;;;;;;9.40;1.90;;;;;;;50.54;7.55;100335.47;5031263;28;20412;-72
2022/08/12 07:49:50;;;;;;;9.77;1.80;;;;;;;51.16;7.21;100332.69;5032079;28;20071;-70
2022/08/12 07:52:42;;;;;;;3.53;1.88;;;;;;;52.05;7.04;100324.06;5032241;28;20125;-69
2022/08/12 07:55:10;;;;;;;10.65;1.92;;;;;;;51.80;6.64;100329.94;5031848;28;20111;-69
2022/08/12 07:57:48;;;;;;;4.13;1.90;;;;;;;52.22;6.03;100321.97;5032139;28;20041;-70
2022/08/12 08:00:17;;;;;;;6.13;2.20;;;;;;;53.20;5.62;100321.09;5013004;28;20046;-70
2022/08/12 08:02:43;;;;;;;8.02;2.20;;;;;;;54.12;4.99;100328.28;5024053;28;20072;-70
2022/08/12 08:05:11;;;;;;;5.82;2.20;;;;;;;54.94;4.98;100332.13;5030895;28;20447;-70
2022/08/12 08:07:41;;;;;;;5.30;2.15;;;;;;;55.42;4.27;100330.00;5030770;28;20103;-70
2022/08/12 08:10:09;;;;;;;7.82;2.15;;;;;;;56.04;4.26;100327.28;5031254;28;20049;-73
2022/08/12 08:12:57;;;;;;;5.75;2.30;;;;;;;55.87;3.99;100315.50;5031050;28;20069;-70
2022/08/12 08:15:29;;;;;;;4.38;2.58;;;;;;;56.13;4.03;100320.47;5032089;28;20512;-74
2022/08/12 08:18:18;;;;;;;12.13;2.25;;;;;;;56.13;3.87;100302.53;5032218;28;20501;-70
2022/08/12 08:20:54;;;;;;;6.55;2.25;;;;;;;56.17;3.67;100305.84;5032542;28;20546;-70
2022/08/12 08:23:21;;;;;;;4.22;2.50;;;;;;;56.82;3.52;100303.97;5032510;28;20053;-72
2022/08/12 08:26:00;;;;;;;10.40;2.63;;;;;;;57.43;3.74;100309.03;5032454;28;20049;-70
2022/08/12 08:28:27;;;;;;;9.07;3.75;;;;;;;57.69;3.50;100310.88;5032792;28;20050;-73
2022/08/12 08:30:53;;;;;;;8.82;2.95;;;;;;;58.45;3.34;100313.00;5032003;28;20076;-71
2022/08/12 08:33:20;;;;;;;6.72;3.08;;;;;;;59.25;2.46;100307.59;5031638;28;20065;-70
2022/08/12 08:36:10;;;;;;;8.90;3.20;;;;;;;59.75;2.13;100308.44;5031908;28;20530;-71
2022/08/12 08:38:49;;;;;;;10.50;3.20;;;;;;;59.48;2.20;100298.50;5032163;28;20061;-74
2022/08/12 08:44:28;;;;;;;7.75;3.25;;;;;;;58.82;3.01;100294.34;5035739;28;20060;-71
2022/08/12 08:46:55;;;;;;;11.60;3.38;;;;;;;58.45;3.28;100304.00;5036286;28;20493;-71
2022/08/12 08:49:22;;;;;;;11.50;3.97;;;;;;;57.88;3.28;100289.72;5035964;28;20083;-70
2022/08/12 08:51:52;;;;;;;7.75;3.00;;;;;;;57.52;2.77;100287.22;5036149;28;20508;-71
2022/08/12 08:54:19;;;;;;;7.70;2.78;;;;;;;57.40;3.27;100286.38;5036209;28;20081;-70
2022/08/12 08:56:49;;;;;;;4.20;3.00;;;;;;;57.84;3.63;100280.47;5035716;28;20087;-70
2022/08/12 08:59:23;;;;;;;15.13;3.45;;;;;;;57.63;3.21;100276.72;5035841;28;20049;-70
2022/08/12 09:01:50;;;;;;;6.32;2.97;;;;;;;57.35;3.58;100283.75;5035494;28;20045;-70
2022/08/12 09:04:19;;;;;;;4.82;2.83;;;;;;;57.41;3.42;100278.94;5017346;28;20050;-70
2022/08/12 09:07:05;;;;;;;4.25;2.70;;;;;;;57.90;2.89;100280.06;5032521;28;20087;-70
2022/08/12 09:09:43;;;;;;;8.27;2.92;;;;;;;58.34;3.27;100283.00;5026182;28;20128;-69
2022/08/12 09:15:25;;;;;;;5.85;3.05;;;;;;;59.26;2.24;100276.94;5032025;28;20480;-70
2022/08/12 09:18:12;;;;;;;6.95;3.45;;;;;;;59.25;2.01;100280.56;5031006;28;20534;-70
2022/08/12 09:20:41;;;;;;;6.70;3.20;;;;;;;58.96;2.00;100272.00;5032044;28;20069;-71
2022/08/12 09:23:12;;;;;;;11.52;3.72;;;;;;;58.69;2.16;100271.03;5031025;28;20049;-70
2022/08/12 09:26:01;;;;;;;5.40;2.95;;;;;;;58.19;3.00;100277.53;5031235;28;20440;-70
2022/08/12 09:28:32;;;;;;;7.97;3.17;;;;;;;58.12;3.24;100261.34;5031163;28;20492;-70
2022/08/12 09:31:10;;;;;;;9.32;3.00;;;;;;;58.87;2.70;100260.16;5031843;28;20049;-71
2022/08/12 09:33:57;;;;;;;7.82;3.13;;;;;;;58.01;2.93;100262.13;5031313;28;20143;-71
2022/08/12 09:36:44;;;;;;;6.47;3.08;;;;;;;57.22;3.73;100257.38;5030326;28;20500;-70
2022/08/12 09:39:29;;;;;;;4.45;2.63;;;;;;;57.01;3.23;100255.19;5031224;28;20095;-71
2022/08/12 09:45:22;;;;;;;4.93;2.70;;;;;;;50.40;6.22;100248.19;5031766;28;20060;-71
2022/08/12 09:48:08;;;;;;;18.77;3.65;;;;;;;45.74;8.82;100242.13;5031372;28;20064;-71
2022/08/12 09:50:50;;;;;;;6.47;2.30;;;;;;;42.64;10.63;100237.47;5027207;28;20045;-71
2022/08/12 09:53:24;;;;;;;6.03;2.50;;;;;;;40.45;12.07;100232.75;5031755;28;20120;-70
2022/08/12 09:56:05;;;;;;;6.68;2.45;;;;;;;38.85;13.54;100234.88;5031762;28;20416;-70
2022/08/12 09:58:52;;;;;;;7.65;2.35;;;;;;;37.47;14.84;100231.84;5032049;28;20187;-71
2022/08/12 10:01:27;;;;;;;3.58;2.00;;;;;;;36.43;15.28;100228.31;5033543;28;20412;-70
2022/08/12 10:04:14;;;;;;;5.95;2.33;;;;;;;35.44;16.60;100226.63;5033145;28;20095;-69
2022/08/12 10:06:45;;;;;;;17.33;2.47;;;;;;;34.74;16.97;100227.72;5034571;28;20513;-71
2022/08/12 10:09:23;;;;;;;8.20;2.80;;;;;;;34.37;17.78;100219.50;5034408;28;20055;-74
2022/08/12 10:14:59;;;;;;;;;;;;;;;33.35;18.32;100214.94;5034913;28;20404;-70
2022/08/12 10:17:26;;;;;;;4.90;2.63;;;;;;;33.03;19.07;100221.94;5034168;28;19925;-71
2022/08/12 10:19:53;;;;;;;4.75;2.85;;;;;;;32.53;19.96;100221.34;5034147;28;20049;-75
2022/08/12 10:22:24;;;;;;;9.48;2.85;;;;;;;32.04;20.12;100215.16;5034574;28;20448;-71
2022/08/12 10:30:58;;;;;;;3.35;2.10;;;;;;;31.50;20.74;100203.72;5033979;28;20061;-70
2022/08/12 10:33:29;;;;;;;5.15;1.85;;;;;;;31.10;21.32;100210.28;5031932;28;20103;-70
2022/08/12 10:35:58;;;;;;;5.40;2.13;;;;;;;30.74;21.78;100201.91;5032685;28;20081;-70
2022/08/12 10:38:25;;;;;;;6.73;2.17;;;;;;;30.41;22.46;100213.88;5033323;28;20127;-71
2022/08/12 10:44:11;;;;;;;10.93;2.10;;;;;;;30.14;22.28;100208.41;5033830;28;20085;-71
2022/08/12 10:46:47;;;;;;;4.63;2.42;;;;;;;30.09;22.46;100198.28;5022761;28;20049;-71
2022/08/12 10:49:16;;;;;;;5.38;2.60;;;;;;;30.11;22.84;100195.75;5033029;28;20045;-71
2022/08/12 10:52:05;;;;;;;5.30;2.60;;;;;;;30.05;22.94;100191.81;5028837;28;20059;-70
2022/08/12 10:54:54;;;;;;;8.33;2.23;;;;;;;29.82;23.64;100200.59;5029740;28;20053;-70
2022/08/12 10:57:25;;;;;;;6.07;2.50;;;;;;;29.75;23.57;100189.28;5032278;28;20299;-70
2022/08/12 11:00:13;;;;;;;8.20;2.40;;;;;;;29.70;23.51;100189.03;5021547;28;20095;-69
2022/08/12 11:03:01;;;;;;;7.40;2.15;;;;;;;29.63;23.59;100177.72;5030445;28;20556;-70
2022/08/12 11:05:47;;;;;;;4.45;2.10;;;;;;;29.61;23.40;100178.16;5031583;28;20062;-72
2022/08/12 11:08:37;;;;;;;2.78;1.98;;;;;;;29.44;23.48;100178.53;5031521;28;20041;-73
2022/08/12 11:11:16;;;;;;;3.53;2.17;;;;;;;29.30;23.38;100185.41;5031897;28;20045;-74
2022/08/12 11:14:04;;;;;;;4.45;2.30;;;;;;;29.28;23.96;100170.72;5031370;28;20049;-75
2022/08/12 11:16:32;;;;;;;10.77;1.98;;;;;;;29.33;23.77;100167.31;5031961;28;20045;-72
2022/08/12 11:19:01;;;;;;;5.05;1.92;;;;;;;29.42;23.86;100167.53;5032393;28;20048;-68
2022/08/12 11:21:31;;;;;;;6.25;2.58;;;;;;;29.37;23.98;100165.16;5033181;28;20538;-72
2022/08/12 11:24:21;;;;;;;4.95;2.10;;;;;;;29.36;23.63;100157.84;5036806;28;20057;-73
2022/08/12 11:27:05;;;;;;;4.85;2.05;;;;;;;29.39;23.95;100161.88;5046969;28;20132;-74
2022/08/12 11:29:37;;;;;;;;;;;;;;;29.25;23.85;100160.13;5035670;28;20394;-70
2022/08/12 11:32:23;;;;;;;10.65;2.40;;;;;;;29.23;23.86;100159.78;5031854;28;19978;-69
2022/08/12 11:34:50;;;;;;;3.33;2.00;;;;;;;29.19;23.84;100155.38;5031401;28;20156;-69
2022/08/12 11:37:21;;;;;;;3.50;2.08;;;;;;;29.21;23.87;100153.69;5031768;28;20128;-69
2022/08/12 11:39:53;;;;;;;7.82;2.28;;;;;;;29.25;23.96;100154.41;5029942;28;20056;-74
2022/08/12 11:42:34;;;;;;;3.00;2.00;;;;;;;29.24;23.35;100147.06;5031374;28;20049;-68
2022/08/12 11:45:11;;;;;;;5.10;2.80;;;;;;;29.28;23.42;100144.91;5031998;28;20110;-68
2022/08/12 11:47:44;;;;;;;5.05;1.90;;;;;;;29.27;23.53;100146.16;5029673;28;20577;-68
2022/08/12 11:50:11;;;;;;;;;;;;;;;29.04;23.85;100149.13;5032018;28;20168;-75
2022/08/12 11:52:49;;;;;;;4.03;1.95;;;;;;;29.07;24.19;100141.75;5031820;28;19924;-68
2022/08/12 11:55:24;;;;;;;5.28;1.98;;;;;;;29.09;24.07;100134.31;5031732;28;20053;-67
2022/08/12 11:57:52;;;;;;;12.18;2.17;;;;;;;29.10;24.26;100124.44;5031948;28;20132;-67
2022/08/12 12:00:39;;;;;;;;;;;;;;;28.86;24.57;100125.00;5031916;28;20148;-70
2022/08/12 12:03:26;;;;;;;10.15;2.42;;;;;;;28.98;24.31;100122.22;5030218;28;20443;-70
2022/08/12 12:06:16;;;;;;;5.03;1.60;;;;;;;28.82;24.29;100119.31;5031373;28;20057;-68
2022/08/12 12:08:44;;;;;;;5.25;2.00;;;;;;;28.63;24.77;100128.75;5031783;28;20095;-68
2022/08/12 12:11:18;;;;;;;5.80;2.00;;;;;;;28.56;25.04;100117.41;5038633;28;20053;-68
2022/08/12 12:13:45;;;;;;;4.47;1.80;;;;;;;28.60;24.50;100118.16;5030169;28;20424;-69
2022/08/12 12:16:32;;;;;;;4.60;1.92;;;;;;;28.52;24.81;100116.69;5031396;28;20055;-68
2022/08/12 12:19:05;;;;;;;6.82;2.17;;;;;;;28.49;25.02;100111.84;5031493;28;20455;-69
2022/08/12 12:21:34;;;;;;;6.18;2.13;;;;;;;28.48;25.20;100110.25;5023966;28;20049;-69
2022/08/12 12:24:17;;;;;;;3.60;2.10;;;;;;;28.56;25.08;100113.78;5031503;28;20576;-69
2022/08/12 12:26:49;;;;;;;3.60;1.70;;;;;;;28.45;24.63;100111.09;5031996;28;20049;-68
2022/08/12 12:29:29;;;;;;;;;;;;;;;28.25;24.92;100107.41;5031604;28;20503;-71
2022/08/12 12:32:17;;;;;;;7.30;1.92;;;;;;;28.35;24.87;100100.66;5023754;28;19924;-68
2022/08/12 12:34:45;;;;;;;3.55;2.00;;;;;;;28.43;24.91;100102.13;5031617;28;20085;-70
2022/08/12 12:37:32;;;;;;;3.88;2.20;;;;;;;28.44;24.63;100104.56;5030857;28;20151;-70
2022/08/12 12:40:20;;;;;;;4.03;2.30;;;;;;;28.46;24.76;100098.41;5029127;28;20084;-70
2022/08/12 12:42:58;;;;;;;5.72;2.05;;;;;;;28.36;24.99;100093.69;5024859;28;20069;-69
2022/08/12 12:45:31;;;;;;;8.65;2.20;;;;;;;28.31;25.03;100094.19;5030793;28;20045;-68
2022/08/12 12:48:01;;;;;;;7.10;2.20;;;;;;;28.20;25.78;100085.00;5030823;28;20049;-69
2022/08/12 12:50:40;;;;;;;3.83;1.73;;;;;;;28.06;25.81;100088.13;5030185;28;20370;-68
2022/08/12 12:53:20;;;;;;;8.07;1.80;;;;;;;27.97;25.76;100090.75;5027379;28;20041;-69
2022/08/12 12:56:16;;;;;;;5.90;2.08;;;;;;;28.07;25.67;100089.75;5032252;28;20300;-69
2022/08/12 12:58:43;;;;;;;2.83;1.52;;;;;;;28.10;25.66;100086.03;5031239;28;20133;-69
2022/08/12 13:01:12;;;;;;;5.13;1.80;;;;;;;28.20;25.36;100085.81;5030788;28;20052;-71
2022/08/12 13:03:56;;;;;;;3.38;1.50;;;;;;;28.18;25.40;100078.91;5030714;28;20462;-68
2022/08/12 13:06:29;;;;;;;3.63;2.10;;;;;;;28.22;25.64;100085.38;5031857;28;20057;-68
2022/08/12 13:08:59;;;;;;;3.13;1.55;;;;;;;28.18;25.40;100090.34;5030801;28;20136;-68
2022/08/12 13:11:30;;;;;;;3.92;1.63;;;;;;;28.11;25.54;100085.59;5030761;28;20057;-67
2022/08/12 13:14:14;;;;;;;12.68;1.92;;;;;;;28.11;25.48;100084.78;5023612;28;20404;-72
2022/08/12 13:16:59;;;;;;;3.28;1.70;;;;;;;28.15;26.15;100088.34;5031687;28;20103;-70
2022/08/12 13:19:30;;;;;;;6.60;1.80;;;;;;;28.15;26.38;100080.59;5031310;28;20088;-69
2022/08/12 13:22:17;;;;;;;7.53;1.85;;;;;;;28.17;26.11;100083.84;5031740;28;20169;-69
2022/08/12 13:24:55;;;;;;;2.80;1.63;;;;;;;28.21;25.83;100080.88;5012169;28;20382;-68
2022/08/12 13:27:34;;;;;;;8.35;1.80;;;;;;;28.21;26.07;100066.56;5028021;28;20100;-71
2022/08/12 13:30:03;;;;;;;;;;;;;;;28.00;26.32;100078.44;5035283;28;20049;-68
2022/08/12 13:32:32;;;;;;;4.40;1.80;;;;;;;27.97;26.35;100067.88;5034167;28;19976;-71
2022/08/12 13:35:01;;;;;;;3.92;1.80;;;;;;;28.00;26.28;100073.53;5034186;28;20077;-71
2022/08/12 13:37:32;;;;;;;27.50;2.83;;;;;;;28.01;26.54;100068.63;5033877;28;20057;-69
2022/08/12 13:40:20;;;;;;;3.95;1.80;;;;;;;27.94;26.66;100066.69;5034825;28;20107;-72
2022/08/12 13:42:56;;;;;;;6.25;1.70;;;;;;;27.95;26.50;100064.66;5034619;28;20443;-70
2022/08/12 13:45:25;;;;;;;3.08;1.92;;;;;;;27.88;26.36;100059.88;5034883;28;20071;-69